createdAt,value
2017-12-11T00:00:07.156Z,4.60
2017-12-11T00:02:34.749Z,3.23
2017-12-11T00:05:03.016Z,7.53
2017-12-11T00:07:30.480Z,6.20
2017-12-11T00:09:58.146Z,7.60
2017-12-11T00:12:25.640Z,4.87
2017-12-11T00:14:54.912Z,5.20
2017-12-11T00:17:23.196Z,4.50
2017-12-11T00:19:51.509Z,4.60
2017-12-11T00:22:30.753Z,3.37
2017-12-11T00:24:58.249Z,5.60
2017-12-11T00:27:26.504Z,5.33
2017-12-11T00:29:56.260Z,3.20
2017-12-11T00:32:24.584Z,3.95
2017-12-11T00:34:52.085Z,3.10
2017-12-11T00:37:19.571Z,1.97
2017-12-11T00:39:48.034Z,2.80
2017-12-11T00:42:15.536Z,3.43
2017-12-11T00:44:43.050Z,2.80
2017-12-11T00:47:10.564Z,2.83
2017-12-11T00:49:38.032Z,3.67
2017-12-11T00:52:05.524Z,3.07
2017-12-11T00:54:33.801Z,5.23
2017-12-11T00:57:01.284Z,3.67
2017-12-11T00:59:28.788Z,5.17
2017-12-11T01:01:56.292Z,3.93
2017-12-11T01:04:23.857Z,5.03
2017-12-11T01:06:51.397Z,3.20
2017-12-11T01:09:19.757Z,6.33
2017-12-11T01:11:47.257Z,3.90
2017-12-11T01:14:14.750Z,5.13
2017-12-11T01:16:42.194Z,5.50
2017-12-11T01:19:09.713Z,5.83
2017-12-11T01:21:37.221Z,19.00
2017-12-11T01:24:04.731Z,2.63
2017-12-11T01:26:32.215Z,3.53
2017-12-11T01:29:00.124Z,9.23
2017-12-11T01:31:27.617Z,3.07
2017-12-11T01:33:55.105Z,5.10
2017-12-11T01:36:23.365Z,5.60
2017-12-11T01:38:50.849Z,3.80
2017-12-11T01:41:18.408Z,3.93
2017-12-11T01:43:45.886Z,3.83
2017-12-11T01:46:13.358Z,6.73
2017-12-11T01:48:40.851Z,8.40
2017-12-11T01:51:08.403Z,5.90
2017-12-11T01:53:35.899Z,6.50
2017-12-11T01:56:03.382Z,6.10
2017-12-11T01:58:30.854Z,8.63
2017-12-11T02:00:59.035Z,7.77
2017-12-11T02:03:26.565Z,4.20
2017-12-11T02:05:54.078Z,5.90
2017-12-11T02:08:21.655Z,7.93
2017-12-11T02:10:49.903Z,5.03
2017-12-11T02:13:18.156Z,4.73
2017-12-11T02:15:45.790Z,4.70
2017-12-11T02:18:13.248Z,4.27
2017-12-11T02:20:40.717Z,2.80
2017-12-11T02:23:08.207Z,4.53
2017-12-11T02:25:35.672Z,2.50
2017-12-11T02:28:03.163Z,3.90
2017-12-11T02:30:30.671Z,3.97
2017-12-11T02:32:58.240Z,4.50
2017-12-11T02:35:25.726Z,6.97
2017-12-11T02:37:53.206Z,5.90
2017-12-11T02:40:21.446Z,5.13
2017-12-11T02:42:48.910Z,6.43
2017-12-11T02:45:17.171Z,3.90
2017-12-11T02:47:44.672Z,10.30
2017-12-11T02:50:12.216Z,10.00
2017-12-11T02:52:39.833Z,6.30
2017-12-11T02:55:08.069Z,6.07
2017-12-11T02:57:35.643Z,6.43
2017-12-11T03:00:03.880Z,5.10
2017-12-11T03:02:31.345Z,4.50
2017-12-11T03:04:59.577Z,6.93
2017-12-11T03:07:27.120Z,8.17
2017-12-11T03:09:54.580Z,8.47
2017-12-11T03:12:22.040Z,5.63
2017-12-11T03:14:49.635Z,7.37
2017-12-11T03:17:17.150Z,6.17
2017-12-11T03:19:45.559Z,5.87
2017-12-11T03:22:13.119Z,6.90
2017-12-11T03:24:40.595Z,11.70
2017-12-11T03:27:08.092Z,6.07
2017-12-11T03:29:35.578Z,4.63
2017-12-11T03:32:03.046Z,6.00
2017-12-11T03:34:31.280Z,6.30
2017-12-11T03:36:58.775Z,6.53
2017-12-11T03:39:26.285Z,12.30
2017-12-11T03:41:53.760Z,7.57
2017-12-11T03:44:21.246Z,14.83
2017-12-11T03:46:49.481Z,3.70
2017-12-11T03:49:16.931Z,9.27
2017-12-11T03:51:44.420Z,9.13
2017-12-11T03:54:11.935Z,3.87
2017-12-11T03:56:40.291Z,2.43
2017-12-11T03:59:07.805Z,5.83
2017-12-11T04:01:35.326Z,3.00
2017-12-11T04:04:02.805Z,2.70
2017-12-11T04:06:31.080Z,3.13
2017-12-11T04:08:58.543Z,2.70
2017-12-11T04:11:26.898Z,2.90
2017-12-11T04:13:54.376Z,4.30
2017-12-11T04:16:21.843Z,2.20
2017-12-11T04:18:49.325Z,5.53
2017-12-11T04:21:16.827Z,3.00
2017-12-11T04:23:44.337Z,3.90
2017-12-11T04:26:11.860Z,2.97
2017-12-11T04:28:39.351Z,2.73
2017-12-11T04:31:07.587Z,3.30
2017-12-11T04:33:35.077Z,4.13
2017-12-11T04:36:02.557Z,4.07
2017-12-11T04:38:30.745Z,2.33
2017-12-11T04:40:58.977Z,2.87
2017-12-11T04:43:26.430Z,3.63
2017-12-11T04:45:54.025Z,2.60
2017-12-11T04:48:29.965Z,2.87
2017-12-11T04:50:57.475Z,3.43
2017-12-11T04:53:25.731Z,2.57
2017-12-11T04:55:53.208Z,2.33
2017-12-11T04:58:21.006Z,6.30
2017-12-11T05:00:48.475Z,3.63
2017-12-11T05:03:16.077Z,3.83
2017-12-11T05:05:43.577Z,3.30
2017-12-11T05:08:11.085Z,4.17
2017-12-11T05:10:38.602Z,3.57
2017-12-11T05:13:06.115Z,4.67
2017-12-11T05:15:33.601Z,3.50
2017-12-11T05:18:01.160Z,3.87
2017-12-11T05:20:28.611Z,9.43
2017-12-11T05:22:56.090Z,3.43
2017-12-11T05:25:23.645Z,5.20
2017-12-11T05:27:51.099Z,4.33
2017-12-11T05:30:19.423Z,8.70
2017-12-11T05:32:46.938Z,2.13
2017-12-11T05:35:14.447Z,3.70
2017-12-11T05:37:41.923Z,6.40
2017-12-11T05:40:09.369Z,4.57
2017-12-11T05:42:37.597Z,6.37
2017-12-11T05:45:05.135Z,4.30
2017-12-11T05:47:32.601Z,4.07
2017-12-11T05:50:00.102Z,2.53
2017-12-11T05:52:27.756Z,4.63
2017-12-11T05:54:55.991Z,2.43
2017-12-11T05:57:23.574Z,2.13
2017-12-11T05:59:51.060Z,3.50
2017-12-11T06:02:18.569Z,4.40
2017-12-11T06:04:46.069Z,3.60
2017-12-11T06:07:13.632Z,4.90
2017-12-11T06:09:41.115Z,4.37
2017-12-11T06:12:09.018Z,3.80
2017-12-11T06:14:36.532Z,2.90
2017-12-11T06:17:04.018Z,3.53
2017-12-11T06:19:31.528Z,7.00
2017-12-11T06:21:59.114Z,4.33
2017-12-11T06:24:26.717Z,2.07
2017-12-11T06:29:42.959Z,3.93
2017-12-11T06:32:11.673Z,2.80
2017-12-11T06:34:39.327Z,4.67
2017-12-11T06:37:07.061Z,3.13
2017-12-11T06:39:34.635Z,2.90
2017-12-11T06:42:02.373Z,2.80
2017-12-11T06:44:30.799Z,7.37
2017-12-11T06:46:58.283Z,4.30
2017-12-11T06:49:25.973Z,3.87
2017-12-11T06:51:54.543Z,4.30
2017-12-11T06:54:22.877Z,3.73
2017-12-11T06:56:51.167Z,2.30
2017-12-11T06:59:18.960Z,2.50
2017-12-11T07:01:47.354Z,2.17
2017-12-11T07:04:15.065Z,2.73
2017-12-11T07:06:43.801Z,3.30
2017-12-11T07:09:13.544Z,2.17
2017-12-11T07:11:42.828Z,4.30
2017-12-11T07:14:10.458Z,3.90
2017-12-11T07:16:38.959Z,2.60
2017-12-11T07:19:07.264Z,2.60
2017-12-11T07:21:34.978Z,2.60
2017-12-11T07:24:03.295Z,4.20
2017-12-11T07:26:31.802Z,3.43
2017-12-11T07:28:59.445Z,2.87
2017-12-11T07:31:27.180Z,4.37
2017-12-11T07:33:54.704Z,5.33
2017-12-11T07:36:23.228Z,2.00
2017-12-11T07:38:50.700Z,2.90
2017-12-11T07:41:20.172Z,3.47
2017-12-11T07:43:48.989Z,3.83
2017-12-11T07:46:16.758Z,4.63
2017-12-11T07:48:44.273Z,3.73
2017-12-11T07:51:11.782Z,2.97
2017-12-11T07:53:39.320Z,2.77
2017-12-11T07:56:07.615Z,4.97
2017-12-11T07:58:35.303Z,3.50
2017-12-11T08:01:02.922Z,4.60
2017-12-11T08:03:30.477Z,3.20
2017-12-11T08:05:57.957Z,3.77
2017-12-11T08:08:25.780Z,4.90
2017-12-11T08:10:53.350Z,2.70
2017-12-11T08:13:21.151Z,7.13
2017-12-11T08:15:49.580Z,6.20
2017-12-11T08:18:17.228Z,2.90
2017-12-11T08:20:44.739Z,3.83
2017-12-11T08:23:12.273Z,3.90
2017-12-11T08:25:40.157Z,3.10
2017-12-11T08:28:07.650Z,3.10
2017-12-11T08:30:35.288Z,3.50
2017-12-11T08:33:02.768Z,4.87
2017-12-11T08:35:30.352Z,4.37
2017-12-11T08:37:57.883Z,5.63
2017-12-11T08:40:25.576Z,4.90
2017-12-11T08:42:53.834Z,8.83
2017-12-11T08:45:22.082Z,4.63
2017-12-11T08:47:49.582Z,3.37
2017-12-11T08:50:17.061Z,5.80
2017-12-11T08:52:44.601Z,3.03
2017-12-11T08:55:12.876Z,6.53
2017-12-11T08:57:40.396Z,5.07
2017-12-11T09:00:08.674Z,4.33
2017-12-11T09:02:36.247Z,6.63
2017-12-11T09:05:04.504Z,6.13
2017-12-11T09:07:31.981Z,11.10
2017-12-11T09:09:59.516Z,2.87
2017-12-11T09:12:27.014Z,8.90
2017-12-11T09:14:54.539Z,5.73
2017-12-11T09:17:22.056Z,4.20
2017-12-11T09:19:49.669Z,6.07
2017-12-11T09:22:17.239Z,4.20
2017-12-11T09:24:44.739Z,3.87
2017-12-11T09:27:12.216Z,4.60
2017-12-11T09:29:39.736Z,4.10
2017-12-11T09:32:08.032Z,4.60
2017-12-11T09:34:35.511Z,3.97
2017-12-11T09:37:03.797Z,9.70
2017-12-11T09:39:31.279Z,4.70
2017-12-11T09:41:59.523Z,5.90
2017-12-11T09:44:26.995Z,3.57
2017-12-11T09:46:54.577Z,6.57
2017-12-11T09:49:22.096Z,7.80
2017-12-11T09:51:50.390Z,3.87
2017-12-11T09:54:17.948Z,9.30
2017-12-11T09:56:46.614Z,11.43
2017-12-11T09:59:14.347Z,4.03
2017-12-11T10:01:41.954Z,8.30
2017-12-11T10:04:09.436Z,6.27
2017-12-11T10:06:36.997Z,8.23
2017-12-11T10:09:05.319Z,7.43
2017-12-11T10:11:33.534Z,9.43
2017-12-11T10:14:01.814Z,7.00
2017-12-11T10:16:29.331Z,6.80
2017-12-11T10:18:56.864Z,4.40
2017-12-11T10:21:25.466Z,6.87
2017-12-11T10:23:55.359Z,8.50
2017-12-11T10:26:23.886Z,6.03
2017-12-11T10:28:51.422Z,4.80
2017-12-11T10:31:20.883Z,4.70
2017-12-11T10:33:49.355Z,5.03
2017-12-11T10:36:16.832Z,10.80
2017-12-11T10:38:44.335Z,5.90
2017-12-11T10:41:12.645Z,4.77
2017-12-11T10:43:40.195Z,7.70
2017-12-11T10:46:07.698Z,5.10
2017-12-11T10:48:35.187Z,3.63
2017-12-11T10:51:02.689Z,5.33
2017-12-11T10:53:31.077Z,5.40
2017-12-11T10:55:58.572Z,7.13
2017-12-11T10:58:26.088Z,5.13
2017-12-11T11:00:53.586Z,4.50
2017-12-11T11:03:21.123Z,7.20
2017-12-11T11:05:48.634Z,4.80
2017-12-11T11:08:16.163Z,6.80
2017-12-11T11:10:43.657Z,2.73
2017-12-11T11:13:11.220Z,7.63
2017-12-11T11:15:38.712Z,12.63
2017-12-11T11:18:06.196Z,5.33
2017-12-11T11:20:33.666Z,6.43
2017-12-11T11:23:01.208Z,9.70
2017-12-11T11:25:28.678Z,11.53
2017-12-11T11:27:56.331Z,5.50
2017-12-11T11:30:24.739Z,12.33
2017-12-11T11:32:52.586Z,11.33
2017-12-11T11:35:20.212Z,13.50
2017-12-11T11:37:47.782Z,16.63
2017-12-11T11:40:16.271Z,3.43
2017-12-11T11:42:43.742Z,9.03
2017-12-11T11:45:11.638Z,10.93
2017-12-11T11:47:39.218Z,30.63
2017-12-11T11:50:06.731Z,4.10
2017-12-11T11:52:34.296Z,6.60
2017-12-11T11:55:01.797Z,7.00
2017-12-11T11:57:29.271Z,8.70
2017-12-11T11:59:56.967Z,9.53
2017-12-11T12:02:24.520Z,10.00
2017-12-11T12:04:52.851Z,11.83
2017-12-11T12:07:20.323Z,12.33
2017-12-11T12:09:47.835Z,19.20
2017-12-11T12:12:15.335Z,14.50
2017-12-11T12:14:42.808Z,9.13
2017-12-11T12:17:10.311Z,10.73
2017-12-11T12:19:38.574Z,11.20
2017-12-11T12:22:06.127Z,9.40
2017-12-11T12:24:33.615Z,7.27
2017-12-11T12:27:01.273Z,11.07
2017-12-11T12:29:29.513Z,10.60
2017-12-11T12:31:57.016Z,13.40
2017-12-11T12:34:24.529Z,6.67
2017-12-11T12:36:52.015Z,8.57
2017-12-11T12:39:19.517Z,13.67
2017-12-11T12:41:47.120Z,19.20
2017-12-11T12:44:14.733Z,11.33
2017-12-11T12:46:49.610Z,8.93
2017-12-11T12:49:18.250Z,8.13
2017-12-11T12:51:45.794Z,6.53
2017-12-11T12:54:13.595Z,8.50
2017-12-11T12:56:41.116Z,8.40
2017-12-11T12:59:09.909Z,9.13
2017-12-11T13:01:37.431Z,11.57
2017-12-11T13:04:04.925Z,9.30
2017-12-11T13:06:32.655Z,5.83
2017-12-11T13:09:00.923Z,12.43
2017-12-11T13:11:28.446Z,13.17
2017-12-11T13:13:56.694Z,12.50
2017-12-11T13:16:24.250Z,10.70
2017-12-11T13:18:52.553Z,13.03
2017-12-11T13:21:20.226Z,12.27
2017-12-11T13:26:27.278Z,8.40
2017-12-11T13:28:54.773Z,6.87
2017-12-11T13:31:22.396Z,10.63
2017-12-11T13:33:49.906Z,7.93
2017-12-11T13:36:17.416Z,18.60
2017-12-11T13:38:44.879Z,9.87
2017-12-11T13:41:12.476Z,14.63
2017-12-11T13:43:39.960Z,14.27
2017-12-11T13:46:07.468Z,9.33
2017-12-11T13:48:34.942Z,9.43
2017-12-11T13:51:03.558Z,16.23
2017-12-11T13:53:31.076Z,9.50
2017-12-11T13:55:59.839Z,12.00
2017-12-11T13:58:27.437Z,16.70
2017-12-11T14:00:54.996Z,15.87
2017-12-11T14:03:23.249Z,29.00
2017-12-11T14:05:50.733Z,21.80
2017-12-11T14:08:18.209Z,16.07
2017-12-11T14:10:45.724Z,17.40
2017-12-11T14:13:13.382Z,12.23
2017-12-11T14:15:40.901Z,16.93
2017-12-11T14:18:08.412Z,9.70
2017-12-11T14:20:35.882Z,14.20
2017-12-11T14:23:04.205Z,17.33
2017-12-11T14:25:31.679Z,21.73
2017-12-11T14:27:59.151Z,11.13
2017-12-11T14:30:27.118Z,8.43
2017-12-11T14:32:55.347Z,14.67
2017-12-11T14:35:23.634Z,6.53
2017-12-11T14:37:51.151Z,10.20
2017-12-11T14:40:18.681Z,8.57
2017-12-11T14:42:46.181Z,7.23
2017-12-11T14:45:13.806Z,11.57
2017-12-11T14:47:41.314Z,26.57
2017-12-11T14:50:08.972Z,10.80
2017-12-11T14:52:37.267Z,19.57
2017-12-11T14:55:04.761Z,12.37
2017-12-11T14:57:33.066Z,16.07
2017-12-11T15:00:00.585Z,9.07
2017-12-11T15:02:30.385Z,6.60
2017-12-11T15:04:57.873Z,10.13
2017-12-11T15:07:25.394Z,9.20
2017-12-11T15:09:52.932Z,7.53
2017-12-11T15:12:20.413Z,9.47
2017-12-11T15:14:48.655Z,6.93
2017-12-11T15:17:16.907Z,5.00
2017-12-11T15:19:44.464Z,7.90
2017-12-11T15:22:11.986Z,7.03
2017-12-11T15:24:43.151Z,6.67
2017-12-11T15:27:13.768Z,9.93
2017-12-11T15:29:42.917Z,20.13
2017-12-11T15:32:11.195Z,14.23
2017-12-11T15:34:38.659Z,6.50
2017-12-11T15:37:06.222Z,8.13
2017-12-11T15:39:33.703Z,4.60
2017-12-11T15:42:01.192Z,9.73
2017-12-11T15:44:29.594Z,7.83
2017-12-11T15:46:57.277Z,8.33
2017-12-11T15:49:24.782Z,6.60
2017-12-11T15:51:58.984Z,8.80
2017-12-11T15:54:26.591Z,17.07
2017-12-11T15:56:54.211Z,13.03
2017-12-11T15:59:21.704Z,6.30
2017-12-11T16:01:49.954Z,5.87
2017-12-11T16:04:17.507Z,13.00
2017-12-11T16:06:45.184Z,9.60
2017-12-11T16:09:12.691Z,13.40
2017-12-11T16:11:40.157Z,7.97
2017-12-11T16:14:07.745Z,15.47
2017-12-11T16:16:35.222Z,13.93
2017-12-11T16:19:02.771Z,9.43
2017-12-11T16:21:30.632Z,14.43
2017-12-11T16:23:58.180Z,10.63
2017-12-11T16:26:25.739Z,9.30
2017-12-11T16:28:53.265Z,7.13
2017-12-11T16:31:21.585Z,11.90
2017-12-11T16:33:49.442Z,12.83
2017-12-11T16:36:17.025Z,12.77
2017-12-11T16:38:45.270Z,13.73
2017-12-11T16:41:12.797Z,10.90
2017-12-11T16:43:40.297Z,11.50
2017-12-11T16:46:08.581Z,11.37
2017-12-11T16:48:36.079Z,12.67
2017-12-11T16:51:03.622Z,17.27
2017-12-11T16:53:31.120Z,11.97
2017-12-11T16:55:59.494Z,12.57
2017-12-11T16:58:26.988Z,13.83
2017-12-11T17:00:54.550Z,12.50
2017-12-11T17:03:22.188Z,15.37
2017-12-11T17:05:50.179Z,10.70
2017-12-11T17:08:17.726Z,20.70
2017-12-11T17:10:45.415Z,18.27
2017-12-11T17:13:13.093Z,24.20
2017-12-11T17:15:40.589Z,21.40
2017-12-11T17:18:08.104Z,17.30
2017-12-11T17:20:35.578Z,14.37
2017-12-11T17:23:03.045Z,10.40
2017-12-11T17:25:32.127Z,8.47
2017-12-11T17:27:59.737Z,9.60
2017-12-11T17:30:27.360Z,12.23
2017-12-11T17:32:54.996Z,11.40
2017-12-11T17:35:22.582Z,19.10
2017-12-11T17:37:51.020Z,12.00
2017-12-11T17:40:19.338Z,12.27
2017-12-11T17:42:46.835Z,13.70
2017-12-11T17:45:14.515Z,10.87
2017-12-11T17:47:42.913Z,16.80
2017-12-11T17:50:10.453Z,16.20
2017-12-11T17:52:37.938Z,8.70
2017-12-11T17:55:06.216Z,12.17
2017-12-11T17:57:33.821Z,17.07
2017-12-11T18:00:02.232Z,9.57
2017-12-11T18:02:29.801Z,14.03
2017-12-11T18:04:57.304Z,13.13
2017-12-11T18:07:25.222Z,8.20
2017-12-11T18:09:54.450Z,10.03
2017-12-11T18:12:21.995Z,15.47
2017-12-11T18:14:50.267Z,12.53
2017-12-11T18:17:17.788Z,9.17
2017-12-11T18:19:45.371Z,10.03
2017-12-11T18:22:14.644Z,15.20
2017-12-11T18:24:42.124Z,13.63
2017-12-11T18:27:09.666Z,9.97
2017-12-11T18:29:37.137Z,14.73
2017-12-11T18:32:04.632Z,14.13
2017-12-11T18:34:32.136Z,10.70
2017-12-11T18:36:59.631Z,15.47
2017-12-11T18:39:27.192Z,9.87
2017-12-11T18:41:54.661Z,10.80
2017-12-11T18:44:22.157Z,13.07
2017-12-11T18:46:49.720Z,10.17
2017-12-11T18:49:17.308Z,10.77
2017-12-11T18:51:44.841Z,14.87
2017-12-11T18:54:12.441Z,10.47
2017-12-11T18:56:40.770Z,10.53
2017-12-11T18:59:08.291Z,12.60
2017-12-11T19:01:35.805Z,12.97
2017-12-11T19:04:04.638Z,13.43
2017-12-11T19:06:32.135Z,18.57
2017-12-11T19:08:59.667Z,12.73
2017-12-11T19:11:27.205Z,10.63
2017-12-11T19:13:54.732Z,12.60
2017-12-11T19:16:22.281Z,14.97
2017-12-11T19:18:49.836Z,19.00
2017-12-11T19:21:18.094Z,14.87
2017-12-11T19:23:45.676Z,14.07
2017-12-11T19:26:13.216Z,16.77
2017-12-11T19:28:40.890Z,17.17
2017-12-11T19:31:08.546Z,15.00
2017-12-11T19:33:36.140Z,14.53
2017-12-11T19:36:03.676Z,19.37
2017-12-11T19:38:31.144Z,17.20
2017-12-11T19:40:58.728Z,12.90
2017-12-11T19:43:26.272Z,17.43
2017-12-11T19:45:54.631Z,10.03
2017-12-11T19:48:22.233Z,9.90
2017-12-11T19:50:50.596Z,11.17
2017-12-11T19:53:18.194Z,12.90
2017-12-11T19:55:45.683Z,17.67
2017-12-11T19:58:13.239Z,13.77
2017-12-11T20:00:41.538Z,18.53
2017-12-11T20:03:09.795Z,16.83
2017-12-11T20:05:37.349Z,13.90
2017-12-11T20:08:05.652Z,18.70
2017-12-11T20:10:33.127Z,13.60
2017-12-11T20:13:00.752Z,11.40
2017-12-11T20:15:28.310Z,12.13
2017-12-11T20:17:55.797Z,12.70
2017-12-11T20:20:23.416Z,13.03
2017-12-11T20:22:50.880Z,12.07
2017-12-11T20:25:18.416Z,11.50
2017-12-11T20:27:45.929Z,13.30
2017-12-11T20:30:13.419Z,10.93
2017-12-11T20:32:40.893Z,9.90
2017-12-11T20:35:08.547Z,14.60
2017-12-11T20:37:36.062Z,15.37
2017-12-11T20:40:03.598Z,10.37
2017-12-11T20:42:31.140Z,11.63
2017-12-11T20:44:58.643Z,9.70
2017-12-11T20:47:26.951Z,12.33
2017-12-11T20:49:54.459Z,10.53
2017-12-11T20:52:21.975Z,9.90
2017-12-11T20:54:49.449Z,12.03
2017-12-11T20:57:17.070Z,13.50
2017-12-11T20:59:44.617Z,10.90
2017-12-11T21:02:12.100Z,11.33
2017-12-11T21:04:39.618Z,9.60
2017-12-11T21:07:07.256Z,6.43
2017-12-11T21:09:35.509Z,11.30
2017-12-11T21:12:03.808Z,7.50
2017-12-11T21:14:31.351Z,9.47
2017-12-11T21:16:59.715Z,8.13
2017-12-11T21:19:27.275Z,6.13
2017-12-11T21:21:54.758Z,6.67
2017-12-11T21:24:22.440Z,7.67
2017-12-11T21:26:50.144Z,10.93
2017-12-11T21:29:17.664Z,6.43
2017-12-11T21:31:45.290Z,7.57
2017-12-11T21:34:12.820Z,6.10
2017-12-11T21:36:40.537Z,7.50
2017-12-11T21:39:08.032Z,6.37
2017-12-11T21:41:35.654Z,5.53
2017-12-11T21:44:03.132Z,8.00
2017-12-11T21:46:30.619Z,7.07
2017-12-11T21:48:58.093Z,4.47
2017-12-11T21:51:25.763Z,3.83
2017-12-11T21:53:53.307Z,5.60
2017-12-11T21:56:21.604Z,6.20
2017-12-11T21:58:49.100Z,5.33
2017-12-11T22:01:17.473Z,4.90
2017-12-11T22:03:45.030Z,5.50
2017-12-11T22:06:12.540Z,2.53
2017-12-11T22:08:40.002Z,1.67
2017-12-11T22:11:08.218Z,2.37
2017-12-11T22:13:35.809Z,1.87
2017-12-11T22:16:03.311Z,3.40
2017-12-11T22:18:30.774Z,2.50
2017-12-11T22:20:58.274Z,2.80
2017-12-11T22:23:25.862Z,5.73
2017-12-11T22:25:55.051Z,5.83
2017-12-11T22:28:22.719Z,2.40
2017-12-11T22:30:50.198Z,5.27
2017-12-11T22:33:17.738Z,7.33
2017-12-11T22:35:46.140Z,3.67
2017-12-11T22:40:52.115Z,3.63
2017-12-11T22:43:25.796Z,3.40
2017-12-11T22:45:53.274Z,3.17
2017-12-11T22:48:20.739Z,3.87
2017-12-11T22:50:48.225Z,1.53
2017-12-11T22:53:15.765Z,2.93
2017-12-11T22:55:44.001Z,3.53
2017-12-11T22:58:11.471Z,1.83
2017-12-11T23:00:39.152Z,1.73
2017-12-11T23:03:06.650Z,1.87
2017-12-11T23:05:34.199Z,3.37
2017-12-11T23:08:01.669Z,2.30
2017-12-11T23:10:30.295Z,3.60
2017-12-11T23:12:57.767Z,1.40
2017-12-11T23:15:26.095Z,5.03
2017-12-11T23:17:53.618Z,1.20
2017-12-11T23:20:21.100Z,2.80
2017-12-11T23:22:48.594Z,2.13
2017-12-11T23:25:16.056Z,1.80
2017-12-11T23:27:44.283Z,0.87
2017-12-11T23:30:11.798Z,2.23
2017-12-11T23:32:39.318Z,3.73
2017-12-11T23:35:07.582Z,0.93
2017-12-11T23:37:35.079Z,2.23
2017-12-11T23:40:02.575Z,2.40
2017-12-11T23:42:30.055Z,1.33
2017-12-11T23:44:57.564Z,1.90
2017-12-11T23:47:25.107Z,1.93
2017-12-11T23:49:52.724Z,0.80
2017-12-11T23:52:20.165Z,2.30
2017-12-11T23:54:47.689Z,0.70
2017-12-11T23:57:15.929Z,1.00
2017-12-11T23:59:43.399Z,1.20
